Time;durP1;ratioP1;P1;durP2;ratioP2;P2;SDS_P1;SDS_P2;PMS_P1;PMS_P2;Temp;Humidity;BMP_temperature;BMP_pressure;BME280_temperature;BME280_humidity;BME280_pressure;Samples;Min_cycle;Max_cycle;Signal;HPM_P1;HPM_P2
2023/10/11 00:01:14;;;;;;;8.10;4.18;;;;;;;19.05;87.06;101384.03;5263727;28;20036;-72
2023/10/11 00:03:52;;;;;;;7.73;4.10;;;;;;;19.01;87.25;101383.53;5259181;28;20037;-72
2023/10/11 00:06:25;;;;;;;6.45;4.00;;;;;;;18.99;87.44;101382.91;5266583;28;20036;-72
2023/10/11 00:08:57;;;;;;;5.68;3.60;;;;;;;18.96;86.45;101380.59;5263457;28;20056;-72
2023/10/11 00:11:30;;;;;;;9.00;4.30;;;;;;;18.96;86.53;101383.25;5266089;28;20537;-72
2023/10/11 00:14:02;;;;;;;8.25;4.18;;;;;;;18.90;86.92;101384.78;5266691;28;20029;-72
2023/10/11 00:16:35;;;;;;;7.50;4.03;;;;;;;18.90;86.58;101381.25;5266219;28;20035;-72
2023/10/11 00:19:09;;;;;;;7.70;4.32;;;;;;;18.82;87.35;101384.78;5267618;28;20016;-72
2023/10/11 00:21:42;;;;;;;9.40;4.45;;;;;;;18.80;86.70;101381.47;5262233;28;20052;-72
2023/10/11 00:24:17;;;;;;;7.70;3.77;;;;;;;18.84;86.43;101376.66;5266943;28;20389;-72
2023/10/11 00:26:49;;;;;;;6.88;3.63;;;;;;;18.74;87.17;101379.50;5264519;28;20029;-72
2023/10/11 00:29:21;;;;;;;9.63;3.90;;;;;;;18.76;87.22;101377.50;5267393;28;20481;-72
2023/10/11 00:31:53;;;;;;;8.30;4.20;;;;;;;18.73;87.85;101385.81;5263807;28;20021;-72
2023/10/11 00:34:25;;;;;;;8.55;4.53;;;;;;;18.73;86.57;101383.16;5261194;28;20036;-72
2023/10/11 00:36:58;;;;;;;7.15;4.10;;;;;;;18.73;86.60;101382.34;5266657;28;20115;-71
2023/10/11 00:39:32;;;;;;;9.15;4.05;;;;;;;18.69;87.28;101379.97;5265218;28;20040;-72
2023/10/11 00:42:05;;;;;;;7.88;4.63;;;;;;;18.68;87.03;101374.84;5264841;28;20381;-72
2023/10/11 00:44:38;;;;;;;6.53;4.35;;;;;;;18.68;87.59;101375.69;5258221;28;20284;-72
2023/10/11 00:47:10;;;;;;;7.43;4.03;;;;;;;18.64;88.46;101373.53;5266207;28;20020;-71
2023/10/11 00:49:45;;;;;;;7.80;4.17;;;;;;;18.61;88.74;101374.69;5264917;28;20024;-72
2023/10/11 00:52:17;;;;;;;7.28;4.05;;;;;;;18.59;88.57;101374.03;5262853;28;20318;-72
2023/10/11 00:54:51;;;;;;;7.57;4.38;;;;;;;18.53;89.35;101374.72;5267779;28;20033;-72
2023/10/11 00:57:23;;;;;;;6.60;4.40;;;;;;;18.57;89.03;101372.56;5267635;28;20024;-72
2023/10/11 00:59:55;;;;;;;7.75;4.10;;;;;;;18.57;88.60;101368.06;5268656;28;20028;-72
2023/10/11 01:02:31;;;;;;;7.93;4.55;;;;;;;18.53;89.74;101371.25;5263017;28;20044;-72
2023/10/11 01:05:06;;;;;;;7.32;4.47;;;;;;;18.49;89.71;101373.41;5262676;28;20029;-72
2023/10/11 01:07:39;;;;;;;7.57;4.03;;;;;;;18.43;90.32;101366.13;5249130;28;20047;-72
2023/10/11 01:10:12;;;;;;;8.77;5.10;;;;;;;18.39;91.14;101362.97;5267605;28;20494;-72
2023/10/11 01:12:44;;;;;;;6.53;4.00;;;;;;;18.34;91.18;101373.25;5266734;28;20493;-72
2023/10/11 01:15:19;;;;;;;8.25;4.10;;;;;;;18.34;91.48;101360.00;5263823;28;20178;-71
2023/10/11 01:17:54;;;;;;;6.80;4.55;;;;;;;18.28;92.24;101368.63;5258736;28;20047;-72
2023/10/11 01:20:29;;;;;;;7.85;4.60;;;;;;;18.23;92.07;101355.88;5268645;28;20047;-72
2023/10/11 01:23:01;;;;;;;6.50;4.07;;;;;;;18.15;93.46;101366.50;5263525;28;20032;-72
2023/10/11 01:25:35;;;;;;;10.27;4.47;;;;;;;18.10;93.50;101362.66;5262333;28;20485;-71
2023/10/11 01:28:07;;;;;;;9.80;4.40;;;;;;;18.09;94.05;101361.84;5261329;28;20026;-72
2023/10/11 01:30:39;;;;;;;6.03;4.38;;;;;;;18.05;93.97;101357.03;5256639;28;20033;-71
2023/10/11 01:33:11;;;;;;;6.22;4.40;;;;;;;18.08;93.83;101365.50;5259730;28;20040;-72
2023/10/11 01:35:43;;;;;;;8.63;4.57;;;;;;;18.04;94.79;101360.69;5263344;28;20038;-71
2023/10/11 01:38:17;;;;;;;5.93;3.95;;;;;;;18.01;94.64;101347.75;5265749;28;20119;-72
2023/10/11 01:40:54;;;;;;;8.63;4.45;;;;;;;18.06;95.10;101354.22;5257616;28;20423;-72
2023/10/11 01:43:26;;;;;;;8.38;4.38;;;;;;;17.98;94.45;101351.56;5259022;28;20045;-72
2023/10/11 01:45:57;;;;;;;8.95;5.00;;;;;;;17.96;94.77;101345.63;5266950;28;20029;-71
2023/10/11 01:48:29;;;;;;;9.32;4.60;;;;;;;17.93;95.38;101340.66;5265758;28;20124;-71
2023/10/11 01:51:05;;;;;;;9.18;4.63;;;;;;;17.83;96.66;101329.38;5264445;28;20103;-71
2023/10/11 01:53:36;;;;;;;7.63;4.72;;;;;;;17.83;96.58;101339.97;5263333;28;20028;-71
2023/10/11 01:56:08;;;;;;;7.82;4.40;;;;;;;17.83;96.12;101337.31;5266371;28;20347;-72
2023/10/11 01:58:42;;;;;;;7.30;4.05;;;;;;;17.83;96.29;101338.16;5264594;28;20020;-71
2023/10/11 02:01:21;;;;;;;9.25;4.50;;;;;;;17.81;97.49;101329.56;5264389;28;20040;-71
2023/10/11 02:03:56;;;;;;;7.82;4.35;;;;;;;17.69;97.06;101323.72;5264796;28;20032;-71
2023/10/11 02:06:31;;;;;;;9.02;4.10;;;;;;;17.64;98.58;101323.38;5261386;28;20330;-72
2023/10/11 02:09:04;;;;;;;9.60;4.72;;;;;;;17.61;98.51;101313.09;5258700;28;20028;-74
2023/10/11 02:11:41;;;;;;;7.97;4.50;;;;;;;17.59;98.36;101301.84;5258904;28;20043;-71
2023/10/11 02:14:14;;;;;;;8.65;4.40;;;;;;;17.57;98.42;101311.75;5263661;28;20805;-72
2023/10/11 02:16:45;;;;;;;6.30;4.35;;;;;;;17.58;98.85;101310.78;5264328;28;20031;-71
2023/10/11 02:19:18;;;;;;;10.63;5.43;;;;;;;17.57;99.18;101303.00;5267877;28;20020;-72
2023/10/11 02:21:53;;;;;;;8.18;5.15;;;;;;;17.51;99.42;101301.84;5262108;28;20405;-72
2023/10/11 02:24:25;;;;;;;8.10;4.20;;;;;;;17.46;99.90;101298.84;5262079;28;20036;-71
2023/10/11 02:26:58;;;;;;;9.05;4.50;;;;;;;17.46;100.00;101296.19;5263579;28;20044;-71
2023/10/11 02:29:30;;;;;;;7.65;4.75;;;;;;;17.49;100.00;101295.88;5257841;28;20378;-71
2023/10/11 02:32:04;;;;;;;7.40;4.97;;;;;;;17.39;100.00;101284.63;5255341;28;20027;-72
2023/10/11 02:34:36;;;;;;;8.77;5.07;;;;;;;17.37;100.00;101292.72;5262662;28;20040;-72
2023/10/11 02:37:11;;;;;;;9.13;4.72;;;;;;;17.39;100.00;101295.22;5268753;28;20033;-72
2023/10/11 02:39:43;;;;;;;10.13;4.78;;;;;;;17.32;100.00;101294.22;5270933;28;20028;-72
2023/10/11 02:42:19;;;;;;;6.15;4.45;;;;;;;17.34;100.00;101292.22;5266199;28;20477;-72
2023/10/11 02:44:51;;;;;;;7.85;4.47;;;;;;;17.31;100.00;101300.47;5265253;28;20389;-72
2023/10/11 02:47:22;;;;;;;7.68;4.57;;;;;;;17.28;100.00;101304.28;5261891;28;20029;-71
2023/10/11 02:49:54;;;;;;;10.05;4.68;;;;;;;17.26;100.00;101296.50;5262216;28;20036;-72
2023/10/11 02:52:35;;;;;;;7.68;4.10;;;;;;;17.28;100.00;101291.06;5265126;28;20082;-72
2023/10/11 02:55:17;;;;;;;7.60;4.85;;;;;;;17.23;100.00;101290.69;5263171;28;20044;-72
2023/10/11 02:58:05;;;;;;;7.22;4.22;;;;;;;17.24;100.00;101293.19;5257984;28;20485;-72
2023/10/11 03:00:37;;;;;;;7.80;4.60;;;;;;;17.22;100.00;101287.22;5247200;28;20055;-72
2023/10/11 03:03:11;;;;;;;8.30;5.13;;;;;;;17.18;100.00;101293.84;5259578;28;20111;-72
2023/10/11 03:05:44;;;;;;;10.95;5.63;;;;;;;17.17;100.00;101289.53;5265692;28;20021;-72
2023/10/11 03:08:19;;;;;;;10.38;5.30;;;;;;;17.19;100.00;101294.66;5265420;28;20389;-72
2023/10/11 03:10:58;;;;;;;9.20;5.35;;;;;;;17.11;100.00;101289.34;5257597;28;20039;-72
2023/10/11 03:13:32;;;;;;;9.85;4.97;;;;;;;17.10;100.00;101280.59;5258247;28;20028;-72
2023/10/11 03:16:10;;;;;;;10.23;5.20;;;;;;;17.10;100.00;101277.94;5261233;28;20037;-71
2023/10/11 03:18:46;;;;;;;7.65;4.43;;;;;;;17.07;100.00;101267.66;5264041;28;20064;-72
2023/10/11 03:21:19;;;;;;;10.45;5.20;;;;;;;17.06;100.00;101271.31;5262855;28;20026;-72
2023/10/11 03:23:54;;;;;;;;;;;;;;;17.83;100.00;101266.59;5265157;28;20041;-72
2023/10/11 03:26:31;;;;;;;11.88;5.57;;;;;;;17.09;100.00;101273.63;5264340;28;19923;-72
2023/10/11 03:29:04;;;;;;;8.52;5.07;;;;;;;17.03;100.00;101271.63;5264854;28;20033;-71
2023/10/11 03:31:40;;;;;;;6.80;4.70;;;;;;;17.01;100.00;101278.91;5264453;28;20032;-72
2023/10/11 03:34:11;;;;;;;6.60;4.57;;;;;;;16.97;100.00;101277.56;5261286;28;20466;-72
2023/10/11 03:36:51;;;;;;;10.82;5.20;;;;;;;16.93;100.00;101271.78;5259336;28;20208;-72
2023/10/11 03:42:07;;;;;;;9.13;5.28;;;;;;;16.90;100.00;101272.09;5261483;28;20036;-72
2023/10/11 03:44:45;;;;;;;9.40;4.82;;;;;;;16.89;100.00;101270.44;5260586;28;20032;-72
2023/10/11 03:47:24;;;;;;;7.47;5.18;;;;;;;16.89;100.00;101270.44;5260263;28;20035;-72
2023/10/11 03:49:56;;;;;;;9.30;5.00;;;;;;;16.84;100.00;101270.09;5259878;28;20049;-72
2023/10/11 03:52:31;;;;;;;9.00;4.82;;;;;;;16.83;100.00;101260.50;5260825;28;20492;-72
2023/10/11 03:55:05;;;;;;;9.85;5.28;;;;;;;16.84;100.00;101258.69;5259388;28;20029;-72
2023/10/11 03:57:45;;;;;;;11.85;5.25;;;;;;;16.93;100.00;101260.34;5251911;28;20033;-72
2023/10/11 04:02:59;;;;;;;11.68;5.57;;;;;;;16.87;100.00;101258.38;5256602;28;20043;-70
2023/10/11 04:05:34;;;;;;;10.15;5.10;;;;;;;16.83;100.00;101252.56;5265255;28;20456;-71
2023/10/11 04:08:10;;;;;;;10.77;5.43;;;;;;;16.80;100.00;101263.47;5269505;28;20021;-70
2023/10/11 04:10:46;;;;;;;8.18;5.13;;;;;;;16.82;100.00;101261.50;5269951;28;20047;-71
2023/10/11 04:13:24;;;;;;;10.82;5.75;;;;;;;16.82;100.00;101250.06;5264526;28;20504;-70
2023/10/11 04:15:59;;;;;;;10.98;5.70;;;;;;;16.77;100.00;101246.06;5267217;28;20500;-71
2023/10/11 04:21:26;;;;;;;7.97;5.30;;;;;;;16.80;100.00;101234.34;5266767;28;20043;-71
2023/10/11 04:23:58;;;;;;;8.25;5.45;;;;;;;16.75;100.00;101234.84;5264899;28;20044;-71
2023/10/11 04:26:33;;;;;;;8.27;5.32;;;;;;;16.74;100.00;101237.63;5267048;28;20469;-70
2023/10/11 04:29:17;;;;;;;10.27;5.88;;;;;;;16.71;100.00;101245.88;5265031;28;20048;-71
2023/10/11 04:34:33;;;;;;;8.75;6.00;;;;;;;16.71;100.00;101236.13;5264275;28;20051;-71
2023/10/11 04:37:07;;;;;;;10.40;6.07;;;;;;;16.72;100.00;101240.41;5269961;28;20032;-71
2023/10/11 04:39:49;;;;;;;9.23;5.70;;;;;;;16.68;100.00;101233.78;5257966;28;20033;-71
2023/10/11 04:42:27;;;;;;;8.77;5.97;;;;;;;16.74;100.00;101238.50;5268694;28;20028;-71
2023/10/11 04:44:59;;;;;;;7.78;5.50;;;;;;;16.73;100.00;101242.09;5263402;28;20038;-71
2023/10/11 04:47:50;;;;;;;10.07;5.50;;;;;;;16.77;100.00;101235.50;5257390;28;20028;-71
2023/10/11 04:50:23;;;;;;;8.43;5.68;;;;;;;16.78;100.00;101255.69;5254476;28;20112;-71
2023/10/11 04:52:56;;;;;;;9.65;6.20;;;;;;;16.76;100.00;101238.31;5257197;28;20044;-71
2023/10/11 04:55:34;;;;;;;8.15;5.30;;;;;;;16.76;100.00;101235.66;5267071;28;20271;-71
2023/10/11 04:58:08;;;;;;;9.32;5.82;;;;;;;16.74;100.00;101248.22;5265238;28;20045;-70
2023/10/11 05:00:47;;;;;;;10.80;6.15;;;;;;;16.80;100.00;101252.06;5260683;28;20433;-71
2023/10/11 05:03:23;;;;;;;10.40;6.47;;;;;;;16.75;100.00;101249.91;5262864;28;20044;-70
2023/10/11 05:06:02;;;;;;;10.18;5.93;;;;;;;16.73;100.00;101257.13;5254096;28;20028;-71
2023/10/11 05:09:03;;;;;;;9.10;6.72;;;;;;;16.75;100.00;101255.19;5261703;28;20024;-71
2023/10/11 05:11:36;;;;;;;7.80;5.35;;;;;;;16.77;100.00;101246.06;5255600;28;20045;-71
2023/10/11 05:14:26;;;;;;;10.68;5.80;;;;;;;16.79;100.00;101253.88;5257447;28;20029;-71
2023/10/11 05:17:16;;;;;;;11.30;6.30;;;;;;;16.77;100.00;101253.19;5267082;28;20048;-71
2023/10/11 05:28:26;;;;;;;10.05;6.38;;;;;;;16.73;100.00;101259.75;5256653;28;20410;-71
2023/10/11 05:31:06;;;;;;;11.57;7.00;;;;;;;16.69;100.00;101267.19;5256682;28;20731;-73
2023/10/11 05:36:40;;;;;;;8.60;6.30;;;;;;;16.72;100.00;101274.81;5257590;28;20429;-71
2023/10/11 05:50:54;;;;;;;10.90;6.57;;;;;;;16.64;100.00;101264.19;5264742;28;20497;-72
2023/10/11 05:53:28;;;;;;;9.55;5.97;;;;;;;16.66;100.00;101261.38;5262332;28;20051;-72
2023/10/11 05:55:59;;;;;;;11.32;6.78;;;;;;;16.62;100.00;101260.06;5263761;28;20037;-72
2023/10/11 05:58:34;;;;;;;10.88;6.45;;;;;;;16.64;100.00;101268.66;5260248;28;21105;-71
2023/10/11 06:01:13;;;;;;;10.48;6.70;;;;;;;16.63;100.00;101267.84;5266192;28;20036;-72
2023/10/11 06:03:48;;;;;;;8.23;5.93;;;;;;;16.65;100.00;101271.16;5260464;28;20044;-71
2023/10/11 06:06:31;;;;;;;9.85;6.03;;;;;;;16.62;100.00;101266.16;5263075;28;20025;-72
2023/10/11 06:09:15;;;;;;;10.77;6.82;;;;;;;16.72;100.00;101264.22;5267935;28;20476;-71
2023/10/11 06:11:50;;;;;;;8.82;6.63;;;;;;;16.73;100.00;101267.69;5259849;28;20036;-72
2023/10/11 06:14:23;;;;;;;8.43;6.10;;;;;;;16.71;100.00;101265.22;5263612;28;20025;-71
2023/10/11 06:16:58;;;;;;;9.55;6.50;;;;;;;16.75;100.00;101260.47;5262335;28;20040;-71
2023/10/11 06:19:30;;;;;;;10.88;7.00;;;;;;;16.75;100.00;101266.59;5267907;28;20029;-71
2023/10/11 06:22:11;;;;;;;9.75;6.60;;;;;;;16.76;100.00;101256.84;5261964;28;20033;-72
2023/10/11 06:24:44;;;;;;;11.77;7.28;;;;;;;16.78;100.00;101262.78;5262949;28;20029;-72
2023/10/11 06:30:09;;;;;;;11.73;6.90;;;;;;;16.74;100.00;101256.16;5265207;28;20032;-71
2023/10/11 06:32:42;;;;;;;10.95;6.40;;;;;;;16.81;100.00;101262.47;5261470;28;20043;-71
2023/10/11 06:35:23;;;;;;;13.20;6.63;;;;;;;16.81;100.00;101256.34;5264519;28;20041;-72
2023/10/11 06:37:55;;;;;;;10.80;6.65;;;;;;;16.85;100.00;101268.25;5257535;28;20324;-71
2023/10/11 06:40:39;;;;;;;10.40;7.03;;;;;;;16.87;100.00;101271.59;5267676;28;20025;-72
2023/10/11 06:43:12;;;;;;;10.68;6.75;;;;;;;16.86;100.00;101261.97;5264429;28;20036;-72
2023/10/11 06:45:44;;;;;;;9.90;6.70;;;;;;;16.93;100.00;101273.56;5262055;28;20024;-72
2023/10/11 06:48:17;;;;;;;11.20;6.55;;;;;;;16.91;100.00;101263.16;5260573;28;20036;-72
2023/10/11 06:50:52;;;;;;;9.63;7.00;;;;;;;16.96;100.00;101263.50;5265029;28;20029;-72
2023/10/11 06:53:24;;;;;;;14.80;7.15;;;;;;;16.98;100.00;101266.00;5263738;28;20032;-72
2023/10/11 06:55:58;;;;;;;12.40;6.72;;;;;;;16.94;100.00;101264.66;5265927;28;20379;-72
2023/10/11 06:58:43;;;;;;;11.23;6.88;;;;;;;17.01;100.00;101271.81;5267592;28;20036;-71
2023/10/11 07:01:15;;;;;;;11.70;7.32;;;;;;;17.06;100.00;101273.97;5258222;28;20029;-72
2023/10/11 07:03:47;;;;;;;10.05;6.57;;;;;;;17.07;100.00;101270.31;5262873;28;20488;-72
2023/10/11 07:06:22;;;;;;;10.25;6.97;;;;;;;17.11;100.00;101269.00;5257481;28;20031;-72
2023/10/11 07:08:58;;;;;;;12.00;6.95;;;;;;;17.15;100.00;101286.22;5256629;28;20028;-72
2023/10/11 07:11:50;;;;;;;11.73;7.50;;;;;;;17.19;100.00;101281.41;5252563;28;20033;-72
2023/10/11 07:14:25;;;;;;;15.07;7.22;;;;;;;17.25;100.00;101294.03;5261398;28;20036;-72
2023/10/11 07:16:59;;;;;;;11.68;6.60;;;;;;;17.32;100.00;101294.22;5258604;28;20036;-72
2023/10/11 07:19:36;;;;;;;8.75;6.47;;;;;;;17.37;100.00;101303.31;5258928;28;20036;-72
2023/10/11 07:22:11;;;;;;;10.65;6.75;;;;;;;17.40;100.00;101310.94;5260580;28;20032;-72
2023/10/11 07:24:43;;;;;;;10.95;6.72;;;;;;;17.47;100.00;101313.75;5259998;28;20025;-72
2023/10/11 07:27:26;;;;;;;14.20;6.60;;;;;;;17.54;100.00;101333.31;5255968;28;20028;-72
2023/10/11 07:30:00;;;;;;;;;;;;;;;18.24;100.00;101330.16;5255608;28;20024;-72
2023/10/11 07:32:36;;;;;;;9.93;7.03;;;;;;;17.67;100.00;101330.16;5252408;28;19931;-72
2023/10/11 07:35:27;;;;;;;10.98;7.00;;;;;;;17.65;100.00;101321.53;5257552;28;20060;-71
2023/10/11 07:38:00;;;;;;;10.95;6.63;;;;;;;17.73;100.00;101324.22;5260615;28;20029;-72
2023/10/11 07:40:41;;;;;;;12.90;6.53;;;;;;;17.80;100.00;101321.75;5260382;28;20020;-72
2023/10/11 07:43:16;;;;;;;14.18;6.78;;;;;;;17.85;100.00;101322.91;5260641;28;20055;-72
2023/10/11 07:45:48;;;;;;;14.02;6.85;;;;;;;17.92;100.00;101328.41;5254694;28;20029;-72
2023/10/11 07:48:20;;;;;;;10.88;6.70;;;;;;;17.96;100.00;101319.94;5254660;28;20035;-71
2023/10/11 07:50:52;;;;;;;11.45;6.95;;;;;;;18.02;100.00;101310.47;5260130;28;20039;-72
2023/10/11 07:53:25;;;;;;;12.68;6.85;;;;;;;18.09;100.00;101311.47;5261259;28;20082;-72
2023/10/11 07:55:58;;;;;;;12.27;6.68;;;;;;;18.18;100.00;101322.88;5260510;28;20052;-72
2023/10/11 07:58:32;;;;;;;13.20;7.00;;;;;;;18.29;100.00;101319.88;5260473;28;20043;-72
2023/10/11 08:01:15;;;;;;;14.18;7.78;;;;;;;18.40;100.00;101324.81;5259871;28;20394;-71
2023/10/11 08:03:47;;;;;;;13.53;8.07;;;;;;;18.49;100.00;101325.66;5251369;28;20040;-72
2023/10/11 08:06:24;;;;;;;8.40;6.43;;;;;;;18.50;100.00;101322.00;5258332;28;20570;-72
2023/10/11 08:09:02;;;;;;;12.05;7.50;;;;;;;18.60;100.00;101312.00;5260580;28;20029;-72
2023/10/11 08:11:36;;;;;;;14.68;7.00;;;;;;;18.66;100.00;101316.63;5258710;28;20040;-72
2023/10/11 08:14:22;;;;;;;11.52;6.20;;;;;;;18.69;100.00;101310.16;5259815;28;20028;-72
2023/10/11 08:16:56;;;;;;;11.65;6.93;;;;;;;18.80;100.00;101315.13;5257552;28;20028;-72
2023/10/11 08:19:27;;;;;;;15.77;7.05;;;;;;;18.80;100.00;101307.16;5258853;28;20059;-72
2023/10/11 08:21:59;;;;;;;11.00;6.95;;;;;;;18.84;100.00;101324.38;5241429;28;20045;-72
2023/10/11 08:24:40;;;;;;;9.75;7.00;;;;;;;18.84;100.00;101329.69;5258866;28;20062;-72
2023/10/11 08:27:14;;;;;;;10.68;7.93;;;;;;;18.76;100.00;101331.56;5259177;28;20021;-72
2023/10/11 08:29:45;;;;;;;9.65;6.70;;;;;;;18.80;100.00;101333.69;5257973;28;20035;-72
2023/10/11 08:32:17;;;;;;;10.10;6.40;;;;;;;18.87;100.00;101341.81;5258625;28;20025;-72
2023/10/11 08:34:51;;;;;;;11.23;6.72;;;;;;;18.87;100.00;101342.63;5258725;28;20467;-72
2023/10/11 08:37:23;;;;;;;11.43;7.03;;;;;;;18.89;100.00;101337.13;5257246;28;20040;-72
2023/10/11 08:39:55;;;;;;;11.60;7.80;;;;;;;19.01;100.00;101332.25;5257271;28;20032;-72
2023/10/11 08:42:30;;;;;;;10.95;6.88;;;;;;;19.05;100.00;101329.09;5258709;28;20025;-72
2023/10/11 08:45:03;;;;;;;11.30;7.43;;;;;;;19.13;100.00;101330.88;5259135;28;20028;-72
2023/10/11 08:47:35;;;;;;;8.75;6.60;;;;;;;19.19;100.00;101341.63;5258421;28;20024;-72
2023/10/11 08:50:08;;;;;;;11.20;7.50;;;;;;;19.35;100.00;101343.38;5258796;28;20480;-72
2023/10/11 08:52:41;;;;;;;12.68;6.90;;;;;;;19.52;100.00;101340.63;5255271;28;20504;-72
2023/10/11 08:55:14;;;;;;;11.88;7.38;;;;;;;19.69;100.00;101334.19;5256111;28;20035;-72
2023/10/11 08:57:47;;;;;;;10.43;7.05;;;;;;;19.71;100.00;101334.84;5256495;28;20044;-72
2023/10/11 09:00:28;;;;;;;;;;;;;;;20.34;100.00;101349.59;5257415;28;20059;-72
2023/10/11 09:03:19;;;;;;;15.73;7.88;;;;;;;20.04;100.00;101347.88;5253267;28;19916;-72
2023/10/11 09:05:58;;;;;;;10.98;7.47;;;;;;;19.84;100.00;101356.34;5257117;28;20032;-72
2023/10/11 09:08:31;;;;;;;16.58;8.23;;;;;;;19.90;100.00;101357.47;5258905;28;20033;-72
2023/10/11 09:11:11;;;;;;;13.20;8.70;;;;;;;20.05;100.00;101346.88;5259501;28;20029;-72
2023/10/11 09:13:43;;;;;;;13.13;8.98;;;;;;;19.96;100.00;101346.09;5260394;28;20021;-72
2023/10/11 09:16:37;;;;;;;11.80;8.88;;;;;;;20.21;100.00;101353.88;5258278;28;20033;-72
2023/10/11 09:19:12;;;;;;;14.25;10.00;;;;;;;20.02;100.00;101344.56;5258247;28;20044;-72
2023/10/11 09:22:02;;;;;;;15.30;10.63;;;;;;;20.25;100.00;101336.53;5259647;28;20036;-72
2023/10/11 09:24:39;;;;;;;14.15;11.30;;;;;;;20.08;100.00;101343.88;5257515;28;20021;-72
2023/10/11 09:29:50;;;;;;;15.48;11.73;;;;;;;20.18;100.00;101355.88;5258147;28;20037;-72
2023/10/11 09:32:32;;;;;;;18.08;11.90;;;;;;;20.14;100.00;101364.41;5253465;28;20048;-72
2023/10/11 09:35:23;;;;;;;16.25;11.68;;;;;;;20.24;100.00;101364.16;5255339;28;20053;-72
2023/10/11 09:37:56;;;;;;;16.20;12.20;;;;;;;20.05;100.00;101355.69;5256510;28;20031;-72
2023/10/11 09:40:31;;;;;;;16.52;11.80;;;;;;;20.16;100.00;101368.56;5256457;28;20040;-72
2023/10/11 09:43:04;;;;;;;16.58;12.10;;;;;;;20.16;100.00;101373.06;5254338;28;20025;-72
2023/10/11 09:45:41;;;;;;;19.38;12.30;;;;;;;20.15;100.00;101366.06;5254549;28;20508;-72
2023/10/11 09:48:17;;;;;;;16.50;12.00;;;;;;;20.20;100.00;101382.31;5256230;28;20029;-72
2023/10/11 09:50:49;;;;;;;15.85;12.95;;;;;;;20.19;100.00;101367.34;5257647;28;20466;-72
2023/10/11 09:53:21;;;;;;;18.17;12.00;;;;;;;20.23;100.00;101368.66;5258747;28;20547;-72
2023/10/11 09:56:01;;;;;;;15.37;11.93;;;;;;;20.42;100.00;101362.81;5257110;28;20066;-72
2023/10/11 09:58:41;;;;;;;17.17;12.07;;;;;;;20.39;100.00;101373.81;5255643;28;20033;-71
2023/10/11 10:01:32;;;;;;;19.35;14.27;;;;;;;20.42;100.00;101354.00;5250599;28;20048;-72
2023/10/11 10:04:07;;;;;;;15.05;13.48;;;;;;;20.19;100.00;101370.00;5255792;28;20032;-72
2023/10/11 10:07:12;;;;;;;14.60;12.65;;;;;;;20.52;100.00;101373.22;5253755;28;20024;-72
2023/10/11 10:09:52;;;;;;;17.15;14.13;;;;;;;20.39;100.00;101368.50;5256389;28;20466;-72
2023/10/11 10:12:25;;;;;;;19.02;15.05;;;;;;;20.21;100.00;101377.81;5258744;28;20386;-72
2023/10/11 10:15:14;;;;;;;;;;;;;;;20.92;100.00;101379.09;5256293;28;20048;-72
2023/10/11 10:17:56;;;;;;;21.58;15.02;;;;;;;20.36;100.00;101390.16;5254308;28;19920;-72
2023/10/11 10:20:34;;;;;;;17.75;14.57;;;;;;;20.25;100.00;101398.56;5255077;28;20052;-72
2023/10/11 10:23:15;;;;;;;19.23;16.02;;;;;;;20.26;100.00;101399.38;5254713;28;20036;-72
2023/10/11 10:25:48;;;;;;;23.23;16.45;;;;;;;19.98;100.00;101397.28;5254793;28;20029;-72
2023/10/11 10:28:35;;;;;;;21.02;15.90;;;;;;;20.22;100.00;101387.44;5251398;28;20029;-72
2023/10/11 10:31:16;;;;;;;22.58;15.60;;;;;;;20.21;100.00;101377.81;5251685;28;20033;-72
2023/10/11 10:34:16;;;;;;;20.17;15.93;;;;;;;20.37;100.00;101383.81;5254732;28;20666;-72
2023/10/11 10:36:48;;;;;;;21.00;15.45;;;;;;;20.17;100.00;101378.19;5255784;28;20076;-72
2023/10/11 10:42:12;;;;;;;23.87;16.33;;;;;;;20.53;100.00;101369.56;5257223;28;20043;-72
2023/10/11 10:44:50;;;;;;;19.88;15.48;;;;;;;20.28;100.00;101376.91;5262529;28;20474;-72
2023/10/11 10:47:28;;;;;;;21.15;16.15;;;;;;;20.30;100.00;101379.38;5255365;28;20021;-72
2023/10/11 10:50:09;;;;;;;24.50;16.20;;;;;;;20.26;100.00;101378.91;5254039;28;20032;-72
2023/10/11 10:52:41;;;;;;;18.90;15.45;;;;;;;20.18;100.00;101376.34;5258325;28;20388;-72
2023/10/11 10:55:14;;;;;;;20.00;15.10;;;;;;;20.29;100.00;101377.75;5257982;28;20028;-72
2023/10/11 10:57:49;;;;;;;19.80;15.75;;;;;;;20.24;100.00;101377.47;5259627;28;20033;-72
2023/10/11 11:00:25;;;;;;;20.60;15.90;;;;;;;20.35;100.00;101379.69;5256005;28;20474;-72
2023/10/11 11:02:57;;;;;;;23.13;15.00;;;;;;;20.24;100.00;101366.81;5259040;28;20031;-72
2023/10/11 11:05:39;;;;;;;17.20;15.37;;;;;;;20.33;100.00;101379.03;5259111;28;20028;-72
2023/10/11 11:08:23;;;;;;;22.57;15.63;;;;;;;20.28;100.00;101376.09;5256716;28;20023;-72
2023/10/11 11:11:19;;;;;;;18.98;15.70;;;;;;;20.37;100.00;101372.34;5255916;28;20291;-72
2023/10/11 11:13:54;;;;;;;19.58;15.85;;;;;;;20.31;100.00;101360.59;5257847;28;20390;-72
2023/10/11 11:16:26;;;;;;;18.67;15.93;;;;;;;20.31;100.00;101362.44;5257533;28;20032;-72
2023/10/11 11:19:10;;;;;;;16.67;14.23;;;;;;;20.50;100.00;101348.63;5253790;28;20036;-73
2023/10/11 11:21:46;;;;;;;21.25;14.40;;;;;;;20.49;100.00;101348.75;5256883;28;20028;-72
2023/10/11 11:24:27;;;;;;;16.67;14.20;;;;;;;20.44;100.00;101337.84;5258075;28;20065;-72
2023/10/11 11:27:00;;;;;;;18.15;14.50;;;;;;;20.48;100.00;101345.28;5256057;28;20033;-72
2023/10/11 11:29:33;;;;;;;19.75;13.48;;;;;;;20.58;100.00;101355.69;5257345;28;20036;-73
2023/10/11 11:32:17;;;;;;;17.30;13.50;;;;;;;20.62;100.00;101349.00;5256414;28;20025;-72
2023/10/11 11:35:09;;;;;;;18.40;12.43;;;;;;;20.89;100.00;101337.66;5255732;28;20057;-72
2023/10/11 11:38:02;;;;;;;20.38;14.25;;;;;;;20.82;100.00;101347.41;5245392;28;20556;-73
2023/10/11 11:40:36;;;;;;;18.60;14.45;;;;;;;20.53;100.00;101334.09;5250932;28;20055;-72
2023/10/11 11:43:11;;;;;;;18.05;13.65;;;;;;;20.52;100.00;101324.47;5246771;28;20033;-73
2023/10/11 11:45:43;;;;;;;19.00;15.13;;;;;;;20.48;100.00;101308.00;5252510;28;20397;-72
2023/10/11 11:48:23;;;;;;;22.25;13.40;;;;;;;20.59;100.00;101306.75;5255774;28;20032;-72
2023/10/11 11:50:56;;;;;;;16.83;13.38;;;;;;;20.67;100.00;101316.47;5253266;28;20031;-71
2023/10/11 11:53:30;;;;;;;16.85;13.07;;;;;;;20.73;100.00;101303.25;5252151;28;20048;-73
2023/10/11 11:56:02;;;;;;;16.38;12.38;;;;;;;20.79;100.00;101307.81;5256499;28;20389;-73
2023/10/11 11:58:33;;;;;;;17.13;12.50;;;;;;;20.78;100.00;101313.34;5254142;28;20033;-73
2023/10/11 12:01:08;;;;;;;17.97;13.27;;;;;;;20.75;100.00;101308.41;5252667;28;20036;-73
2023/10/11 12:03:41;;;;;;;18.33;12.63;;;;;;;20.65;100.00;101301.53;5253678;28;20045;-73
2023/10/11 12:06:22;;;;;;;15.65;12.82;;;;;;;20.82;100.00;101283.50;5260688;28;20025;-73
2023/10/11 12:08:58;;;;;;;15.70;12.98;;;;;;;20.99;100.00;101275.31;5259739;28;20032;-72
2023/10/11 12:11:31;;;;;;;18.13;13.00;;;;;;;20.95;100.00;101256.22;5257695;28;20037;-73
2023/10/11 12:14:04;;;;;;;;;;;;;;;21.98;100.00;101275.41;5257618;28;20037;-73
2023/10/11 12:16:42;;;;;;;16.27;12.05;;;;;;;21.67;100.00;101267.75;5240700;28;19928;-73
2023/10/11 12:19:15;;;;;;;16.83;11.82;;;;;;;21.70;100.00;101270.03;5250843;28;20040;-73
2023/10/11 12:21:47;;;;;;;;;;;;;;;22.51;100.00;101268.56;5254217;28;20028;-73
2023/10/11 12:24:21;;;;;;;17.17;11.02;;;;;;;21.94;100.00;101269.63;5257851;28;19916;-73
2023/10/11 12:26:57;;;;;;;15.77;12.27;;;;;;;21.81;100.00;101256.19;5251983;28;20036;-73
2023/10/11 12:29:29;;;;;;;17.08;10.80;;;;;;;22.02;100.00;101257.97;5250743;28;20036;-73
2023/10/11 12:32:01;;;;;;;18.37;12.43;;;;;;;21.99;100.00;101269.03;5232018;28;20049;-73
2023/10/11 12:34:33;;;;;;;17.67;12.23;;;;;;;21.88;100.00;101267.72;5255722;28;20064;-73
2023/10/11 12:37:05;;;;;;;18.07;11.23;;;;;;;21.85;100.00;101265.44;5255530;28;20506;-73